createdAt,value
2018-05-18T00:00:53.549Z,7.23
2018-05-18T00:03:21.166Z,7.53
2018-05-18T00:05:48.745Z,7.70
2018-05-18T00:08:16.346Z,7.30
2018-05-18T00:10:43.943Z,8.03
2018-05-18T00:13:11.568Z,7.10
2018-05-18T00:15:39.181Z,8.57
2018-05-18T00:18:06.785Z,7.80
2018-05-18T00:20:34.352Z,7.23
2018-05-18T00:23:01.912Z,7.17
2018-05-18T00:25:29.530Z,7.90
2018-05-18T00:27:57.103Z,8.30
2018-05-18T00:30:24.718Z,8.40
2018-05-18T00:32:52.255Z,8.77
2018-05-18T00:35:19.806Z,7.77
2018-05-18T00:37:47.373Z,8.57
2018-05-18T00:40:14.974Z,8.70
2018-05-18T00:42:42.598Z,10.27
2018-05-18T00:45:10.161Z,10.43
2018-05-18T00:47:37.720Z,9.93
2018-05-18T00:50:05.285Z,11.93
2018-05-18T00:52:32.870Z,11.33
2018-05-18T00:55:00.464Z,10.80
2018-05-18T00:57:28.002Z,12.33
2018-05-18T00:59:55.588Z,12.30
2018-05-18T01:02:23.145Z,14.07
2018-05-18T01:04:50.745Z,16.03
2018-05-18T01:07:18.334Z,15.47
2018-05-18T01:09:45.907Z,17.43
2018-05-18T01:12:13.486Z,19.50
2018-05-18T01:14:41.070Z,18.63
2018-05-18T01:17:08.635Z,20.43
2018-05-18T01:19:36.224Z,20.83
2018-05-18T01:22:03.755Z,21.37
2018-05-18T01:24:31.336Z,22.03
2018-05-18T01:26:58.988Z,21.70
2018-05-18T01:29:26.570Z,21.07
2018-05-18T01:31:54.121Z,22.50
2018-05-18T01:34:21.704Z,23.73
2018-05-18T01:36:49.285Z,23.20
2018-05-18T01:39:16.892Z,23.57
2018-05-18T01:41:44.466Z,24.23
2018-05-18T01:44:12.061Z,23.10
2018-05-18T01:46:39.643Z,23.53
2018-05-18T01:49:07.213Z,23.73
2018-05-18T01:51:34.776Z,24.87
2018-05-18T01:54:02.321Z,25.30
2018-05-18T01:56:29.881Z,24.97
2018-05-18T01:58:57.409Z,25.70
2018-05-18T02:01:24.975Z,24.83
2018-05-18T02:03:52.493Z,24.10
2018-05-18T02:06:20.061Z,25.43
2018-05-18T02:08:47.623Z,26.60
2018-05-18T02:11:15.232Z,26.70
2018-05-18T02:13:42.784Z,25.50
2018-05-18T02:16:10.377Z,26.70
2018-05-18T02:18:37.924Z,28.97
2018-05-18T02:21:05.492Z,27.70
2018-05-18T02:23:33.054Z,28.60
2018-05-18T02:26:00.617Z,30.07
2018-05-18T02:28:28.173Z,33.63
2018-05-18T02:30:55.741Z,33.20
2018-05-18T02:33:23.292Z,34.63
2018-05-18T02:35:50.891Z,34.70
2018-05-18T02:38:18.512Z,35.50
2018-05-18T02:40:46.163Z,33.77
2018-05-18T02:43:13.830Z,35.30
2018-05-18T02:45:41.501Z,31.20
2018-05-18T02:48:09.097Z,27.87
2018-05-18T02:50:36.657Z,25.57
2018-05-18T02:53:04.222Z,22.20
2018-05-18T02:55:31.794Z,21.37
2018-05-18T02:57:59.330Z,18.57
2018-05-18T03:00:26.891Z,16.43
2018-05-18T03:02:54.486Z,16.23
2018-05-18T03:05:22.161Z,16.53
2018-05-18T03:07:49.776Z,18.77
2018-05-18T03:10:17.340Z,19.37
2018-05-18T03:12:44.948Z,18.87
2018-05-18T03:15:12.513Z,20.10
2018-05-18T03:17:40.103Z,19.73
2018-05-18T03:20:07.768Z,19.53
2018-05-18T03:22:35.368Z,19.57
2018-05-18T03:25:02.983Z,19.70
2018-05-18T03:27:30.632Z,17.90
2018-05-18T03:29:58.213Z,17.77
2018-05-18T03:32:25.876Z,17.67
2018-05-18T03:34:53.442Z,18.10
2018-05-18T03:37:20.988Z,18.30
2018-05-18T03:39:48.549Z,17.23
2018-05-18T03:42:16.133Z,18.13
2018-05-18T03:44:43.743Z,15.87
2018-05-18T03:47:11.320Z,16.63
2018-05-18T03:49:38.961Z,17.10
2018-05-18T03:52:06.607Z,15.10
2018-05-18T03:54:34.177Z,15.30
2018-05-18T03:57:01.725Z,14.47
2018-05-18T03:59:29.297Z,17.27
2018-05-18T04:02:08.546Z,18.53
2018-05-18T04:04:47.807Z,20.83
2018-05-18T04:07:27.162Z,21.47
2018-05-18T04:09:54.727Z,21.17
2018-05-18T04:12:22.283Z,19.87
2018-05-18T04:14:49.815Z,21.43
2018-05-18T04:17:17.432Z,20.37
2018-05-18T04:19:45.053Z,20.97
2018-05-18T04:22:12.661Z,18.17
2018-05-18T04:24:40.295Z,16.40
2018-05-18T04:27:07.936Z,14.93
2018-05-18T04:29:35.532Z,13.80
2018-05-18T04:32:03.095Z,10.03
2018-05-18T04:34:30.674Z,11.83
2018-05-18T04:36:58.267Z,9.60
2018-05-18T04:39:25.906Z,11.20
2018-05-18T04:41:53.553Z,8.00
2018-05-18T04:44:21.196Z,7.47
2018-05-18T04:46:49.088Z,9.17
2018-05-18T04:49:16.616Z,11.00
2018-05-18T04:51:44.208Z,12.60
2018-05-18T04:54:11.804Z,10.80
2018-05-18T04:56:39.360Z,10.90
2018-05-18T04:59:07.000Z,11.87
2018-05-18T05:01:34.541Z,11.57
2018-05-18T05:04:02.155Z,12.40
2018-05-18T05:06:29.713Z,14.67
2018-05-18T05:08:57.297Z,14.73
2018-05-18T05:11:24.959Z,16.53
2018-05-18T05:13:52.599Z,19.50
2018-05-18T05:16:20.152Z,20.47
2018-05-18T05:18:47.741Z,20.23
2018-05-18T05:21:15.313Z,20.97
2018-05-18T05:23:42.940Z,19.50
2018-05-18T05:26:10.446Z,19.27
2018-05-18T05:28:38.047Z,18.20
2018-05-18T05:31:05.678Z,15.53
2018-05-18T05:33:33.493Z,14.33
2018-05-18T05:36:01.060Z,13.50
2018-05-18T05:38:28.648Z,12.40
2018-05-18T05:40:56.256Z,12.33
2018-05-18T05:43:23.899Z,11.47
2018-05-18T05:45:51.472Z,11.90
2018-05-18T05:48:19.052Z,13.70
2018-05-18T05:50:46.682Z,10.33
2018-05-18T05:53:14.333Z,11.37
2018-05-18T05:55:41.918Z,10.77
2018-05-18T05:58:09.492Z,10.37
2018-05-18T06:00:37.047Z,9.73
2018-05-18T06:03:04.609Z,10.80
2018-05-18T06:05:32.172Z,9.70
2018-05-18T06:07:59.788Z,9.63
2018-05-18T06:10:27.367Z,10.53
2018-05-18T06:12:54.946Z,9.13
2018-05-18T06:15:22.525Z,8.63
2018-05-18T06:17:50.059Z,10.20
2018-05-18T06:20:17.634Z,6.97
2018-05-18T06:22:45.221Z,7.63
2018-05-18T06:25:12.794Z,7.93
2018-05-18T06:27:40.370Z,7.20
2018-05-18T06:30:07.993Z,7.53
2018-05-18T06:32:35.591Z,6.23
2018-05-18T06:35:03.198Z,5.27
2018-05-18T06:37:30.765Z,4.77
2018-05-18T06:39:58.358Z,5.70
2018-05-18T06:42:26.015Z,6.03
2018-05-18T06:44:53.654Z,6.30
2018-05-18T06:47:21.235Z,7.37
2018-05-18T06:49:48.836Z,8.93
2018-05-18T06:52:16.445Z,10.40
2018-05-18T06:54:44.018Z,9.77
2018-05-18T06:57:11.568Z,9.77
2018-05-18T06:59:39.137Z,14.20
2018-05-18T07:02:06.762Z,16.90
2018-05-18T07:04:34.334Z,17.77
2018-05-18T07:07:01.914Z,19.53
2018-05-18T07:09:29.559Z,21.00
2018-05-18T07:11:57.166Z,20.00
2018-05-18T07:14:24.748Z,18.57
2018-05-18T07:16:52.357Z,17.03
2018-05-18T07:19:19.919Z,16.23
2018-05-18T07:21:47.581Z,15.53
2018-05-18T07:24:15.147Z,15.53
2018-05-18T07:26:42.791Z,15.70
2018-05-18T07:29:10.389Z,14.77
2018-05-18T07:31:38.021Z,14.83
2018-05-18T07:34:05.593Z,15.67
2018-05-18T07:36:33.163Z,18.07
2018-05-18T07:39:00.735Z,17.97
2018-05-18T07:41:28.293Z,19.27
2018-05-18T07:43:55.923Z,20.00
2018-05-18T07:46:23.528Z,20.37
2018-05-18T07:48:51.112Z,18.73
2018-05-18T07:51:18.717Z,17.63
2018-05-18T07:53:46.273Z,14.60
2018-05-18T07:56:13.861Z,14.43
2018-05-18T07:58:41.415Z,14.03
2018-05-18T08:01:09.007Z,14.47
2018-05-18T08:03:36.566Z,13.87
2018-05-18T08:06:04.430Z,13.03
2018-05-18T08:08:32.048Z,14.93
2018-05-18T08:10:59.638Z,14.17
2018-05-18T08:13:27.287Z,9.30
2018-05-18T08:15:54.910Z,9.30
2018-05-18T08:18:22.499Z,8.50
2018-05-18T08:20:50.219Z,8.60
2018-05-18T08:23:17.904Z,7.63
2018-05-18T08:25:45.649Z,8.30
2018-05-18T08:28:13.250Z,8.00
2018-05-18T08:30:52.670Z,9.07
2018-05-18T08:33:20.368Z,7.90
2018-05-18T08:35:48.057Z,7.63
2018-05-18T08:38:15.789Z,7.90
2018-05-18T08:40:43.509Z,8.53
2018-05-18T08:43:11.125Z,7.30
2018-05-18T08:45:38.695Z,7.63
2018-05-18T08:48:06.288Z,10.17
2018-05-18T08:50:33.901Z,7.50
2018-05-18T08:53:01.618Z,7.63
2018-05-18T08:55:29.189Z,7.03
2018-05-18T08:57:56.803Z,8.27
2018-05-18T09:00:24.425Z,7.30
2018-05-18T09:02:52.145Z,9.00
2018-05-18T09:05:19.715Z,7.73
2018-05-18T09:07:47.299Z,8.47
2018-05-18T09:10:14.862Z,7.10
2018-05-18T09:12:42.477Z,7.50
2018-05-18T09:15:10.052Z,7.10
2018-05-18T09:17:37.842Z,7.13
2018-05-18T09:20:05.463Z,6.70
2018-05-18T09:22:33.120Z,6.03
2018-05-18T09:25:00.857Z,6.50
2018-05-18T09:27:28.557Z,7.70
2018-05-18T09:29:56.303Z,6.10
2018-05-18T09:32:23.911Z,6.27
2018-05-18T09:34:51.482Z,6.60
2018-05-18T09:37:25.137Z,6.17
2018-05-18T09:39:52.886Z,6.33
2018-05-18T09:42:20.473Z,7.10
2018-05-18T09:44:48.036Z,8.70
2018-05-18T09:47:15.742Z,8.87
2018-05-18T09:49:43.344Z,9.43
2018-05-18T09:52:10.933Z,9.52
2018-05-18T09:54:38.749Z,9.02
2018-05-18T09:57:06.281Z,8.35
2018-05-18T09:59:33.953Z,7.75
2018-05-18T10:04:35.487Z,7.15
2018-05-18T10:07:03.207Z,7.10
2018-05-18T10:09:30.781Z,7.90
2018-05-18T10:11:58.404Z,9.18
2018-05-18T10:14:26.117Z,9.93
2018-05-18T10:16:53.923Z,11.12
2018-05-18T10:19:21.609Z,10.82
2018-05-18T10:21:49.305Z,10.20
2018-05-18T10:24:16.908Z,10.05
2018-05-18T10:26:44.550Z,7.60
2018-05-18T10:29:12.168Z,8.10
2018-05-18T10:31:39.842Z,9.60
2018-05-18T10:34:07.516Z,10.70
2018-05-18T10:36:35.055Z,10.48
2018-05-18T10:39:02.689Z,10.05
2018-05-18T10:41:30.274Z,10.95
2018-05-18T10:43:57.946Z,11.40
2018-05-18T10:46:25.569Z,13.98
2018-05-18T10:48:53.176Z,15.10
2018-05-18T10:51:20.724Z,16.30
2018-05-18T10:53:48.334Z,15.90
2018-05-18T10:56:15.923Z,16.48
2018-05-18T10:58:43.493Z,16.05
2018-05-18T11:01:11.053Z,15.85
2018-05-18T11:03:38.726Z,14.93
2018-05-18T11:06:06.309Z,14.27
2018-05-18T11:08:33.948Z,12.48
2018-05-18T11:11:01.628Z,14.35
2018-05-18T11:13:29.228Z,14.73
2018-05-18T11:15:56.836Z,13.88
2018-05-18T11:18:24.483Z,12.20
2018-05-18T11:20:52.032Z,12.52
2018-05-18T11:23:19.588Z,13.68
2018-05-18T11:25:47.208Z,15.75
2018-05-18T11:28:14.834Z,15.38
2018-05-18T11:30:42.448Z,15.15
2018-05-18T11:33:10.106Z,14.90
2018-05-18T11:35:37.821Z,14.87
2018-05-18T11:38:05.440Z,14.95
2018-05-18T11:40:33.076Z,16.13
2018-05-18T11:43:00.636Z,17.13
2018-05-18T11:45:28.229Z,18.40
2018-05-18T11:47:55.811Z,16.77
2018-05-18T11:50:23.674Z,17.73
2018-05-18T11:52:51.298Z,18.10
2018-05-18T11:55:18.924Z,13.43
2018-05-18T11:57:46.503Z,13.67
2018-05-18T12:00:14.082Z,12.83
2018-05-18T12:02:41.750Z,13.07
2018-05-18T12:05:09.338Z,13.43
2018-05-18T12:07:36.939Z,12.70
2018-05-18T12:10:04.510Z,12.53
2018-05-18T12:12:32.109Z,11.70
2018-05-18T12:15:00.122Z,10.87
2018-05-18T12:17:27.704Z,11.90
2018-05-18T12:19:55.273Z,10.20
2018-05-18T12:22:22.859Z,9.50
2018-05-18T12:24:50.496Z,9.63
2018-05-18T12:27:18.121Z,9.87
2018-05-18T12:29:45.677Z,9.13
2018-05-18T12:32:13.256Z,10.27
2018-05-18T12:34:40.862Z,9.90
2018-05-18T12:37:08.428Z,10.07
2018-05-18T12:39:36.036Z,9.03
2018-05-18T12:42:03.640Z,8.83
2018-05-18T12:44:31.326Z,9.07
2018-05-18T12:46:58.984Z,8.80
2018-05-18T12:49:26.669Z,8.83
2018-05-18T12:51:54.361Z,8.90
2018-05-18T12:54:22.053Z,8.23
2018-05-18T12:56:49.721Z,8.00
2018-05-18T12:59:17.521Z,7.93
2018-05-18T13:01:45.178Z,8.40
2018-05-18T13:04:12.987Z,8.63
2018-05-18T13:06:40.718Z,8.87
2018-05-18T13:09:08.314Z,7.13
2018-05-18T13:11:36.779Z,7.30
2018-05-18T13:14:04.517Z,7.50
2018-05-18T13:16:32.687Z,7.53
2018-05-18T13:19:00.995Z,8.30
2018-05-18T13:21:28.707Z,7.47
2018-05-18T13:23:56.389Z,7.20
2018-05-18T13:26:24.985Z,7.27
2018-05-18T13:28:52.627Z,6.37
2018-05-18T13:31:20.398Z,6.63
2018-05-18T13:33:48.251Z,6.90
2018-05-18T13:36:15.922Z,7.20
2018-05-18T13:38:43.681Z,7.47
2018-05-18T13:41:11.217Z,7.87
2018-05-18T13:43:38.814Z,7.00
2018-05-18T13:46:06.459Z,8.13
2018-05-18T13:48:34.148Z,7.97
2018-05-18T13:51:01.841Z,6.00
2018-05-18T13:53:29.556Z,5.53
2018-05-18T13:55:57.256Z,6.63
2018-05-18T13:58:24.869Z,7.30
2018-05-18T14:00:52.510Z,7.33
2018-05-18T14:03:20.220Z,6.87
2018-05-18T14:05:47.852Z,6.57
2018-05-18T14:08:15.584Z,7.10
2018-05-18T14:10:43.223Z,7.23
2018-05-18T14:13:10.961Z,6.53
2018-05-18T14:15:38.580Z,7.07
2018-05-18T14:18:06.274Z,7.27
2018-05-18T14:20:33.904Z,6.53
2018-05-18T14:23:01.562Z,7.20
2018-05-18T14:25:29.192Z,6.73
2018-05-18T14:27:56.889Z,6.67
2018-05-18T14:30:24.547Z,6.43
2018-05-18T14:32:52.233Z,6.93
2018-05-18T14:35:19.802Z,6.40
2018-05-18T14:37:47.540Z,7.17
2018-05-18T14:40:15.065Z,6.80
2018-05-18T14:42:42.639Z,6.23
2018-05-18T14:45:10.219Z,6.93
2018-05-18T14:47:37.813Z,6.30
2018-05-18T14:50:05.405Z,6.20
2018-05-18T14:52:33.035Z,7.17
2018-05-18T14:55:00.602Z,6.53
2018-05-18T14:57:28.195Z,6.67
2018-05-18T14:59:55.843Z,6.43
2018-05-18T15:02:23.478Z,6.23
2018-05-18T15:04:51.282Z,7.43
2018-05-18T15:07:18.838Z,6.10
2018-05-18T15:09:46.378Z,6.97
2018-05-18T15:12:13.965Z,6.40
2018-05-18T15:14:41.519Z,6.47
2018-05-18T15:17:09.119Z,7.23
2018-05-18T15:19:36.748Z,6.27
2018-05-18T15:22:04.288Z,6.50
2018-05-18T15:24:31.863Z,6.83
2018-05-18T15:26:59.411Z,6.70
2018-05-18T15:29:26.996Z,6.93
2018-05-18T15:31:54.534Z,7.30
2018-05-18T15:34:22.087Z,6.77
2018-05-18T15:36:49.857Z,6.83
2018-05-18T15:39:17.832Z,7.93
2018-05-18T15:41:45.620Z,6.90
2018-05-18T15:44:13.222Z,7.13
2018-05-18T15:46:40.785Z,7.17
2018-05-18T15:49:08.373Z,8.47
2018-05-18T15:51:35.961Z,6.87
2018-05-18T15:54:03.554Z,8.53
2018-05-18T15:56:31.097Z,6.17
2018-05-18T15:58:58.693Z,6.03
2018-05-18T16:01:26.254Z,5.80
2018-05-18T16:03:53.892Z,5.73
2018-05-18T16:06:21.544Z,5.90
2018-05-18T16:08:49.135Z,8.53
2018-05-18T16:11:16.753Z,6.83
2018-05-18T16:13:44.341Z,6.47
2018-05-18T16:16:11.977Z,6.40
2018-05-18T16:18:39.604Z,6.33
2018-05-18T16:21:07.260Z,6.17
2018-05-18T16:23:35.054Z,6.10
2018-05-18T16:26:02.658Z,6.37
2018-05-18T16:28:30.235Z,5.93
2018-05-18T16:30:57.846Z,5.63
2018-05-18T16:33:25.495Z,6.53
2018-05-18T16:35:53.017Z,5.50
2018-05-18T16:38:20.608Z,5.80
2018-05-18T16:40:48.217Z,5.67
2018-05-18T16:43:15.852Z,5.27
2018-05-18T16:45:43.447Z,5.60
2018-05-18T16:48:11.036Z,6.10
2018-05-18T16:50:38.711Z,5.07
2018-05-18T16:53:06.271Z,5.83
2018-05-18T16:55:33.938Z,10.10
2018-05-18T16:58:02.515Z,5.43
2018-05-18T17:00:30.124Z,5.30
2018-05-18T17:02:57.724Z,5.50
2018-05-18T17:05:25.314Z,5.50
2018-05-18T17:07:52.884Z,5.13
2018-05-18T17:10:20.474Z,5.47
2018-05-18T17:12:48.131Z,6.27
2018-05-18T17:15:15.843Z,5.50
2018-05-18T17:17:43.493Z,5.20
2018-05-18T17:20:11.803Z,6.93
2018-05-18T17:22:39.888Z,4.93
2018-05-18T17:25:07.605Z,4.53
2018-05-18T17:27:35.206Z,5.13
2018-05-18T17:30:02.774Z,5.63
2018-05-18T17:32:30.402Z,4.87
2018-05-18T17:34:58.574Z,4.93
2018-05-18T17:37:26.189Z,5.07
2018-05-18T17:39:53.843Z,4.93
2018-05-18T17:42:21.527Z,5.50
2018-05-18T17:44:49.116Z,6.30
2018-05-18T17:47:16.682Z,5.20
2018-05-18T17:49:44.296Z,5.97
2018-05-18T17:52:11.895Z,5.90
2018-05-18T17:54:39.495Z,5.23
2018-05-18T17:57:07.048Z,6.17
2018-05-18T17:59:34.658Z,6.00
2018-05-18T18:02:02.201Z,5.00
2018-05-18T18:04:29.832Z,5.47
2018-05-18T18:06:57.444Z,5.13
2018-05-18T18:09:25.112Z,4.93
2018-05-18T18:11:52.705Z,5.77
2018-05-18T18:14:21.325Z,5.90
2018-05-18T18:16:48.904Z,6.30
2018-05-18T18:19:16.500Z,5.33
2018-05-18T18:21:44.103Z,7.53
2018-05-18T18:24:11.644Z,9.20
2018-05-18T18:26:39.256Z,5.57
2018-05-18T18:29:06.845Z,5.20
2018-05-18T18:31:34.512Z,4.70
2018-05-18T18:34:02.949Z,6.23
2018-05-18T18:36:30.570Z,8.73
2018-05-18T18:38:58.196Z,6.53
2018-05-18T18:41:25.986Z,5.47
2018-05-18T18:43:53.598Z,7.23
2018-05-18T18:46:21.209Z,5.70
2018-05-18T18:48:48.747Z,5.57
2018-05-18T18:51:16.389Z,5.80
2018-05-18T18:53:43.998Z,6.40
2018-05-18T18:56:11.598Z,5.33
2018-05-18T18:58:39.192Z,5.50
2018-05-18T19:01:06.801Z,5.13
2018-05-18T19:03:34.351Z,5.27
2018-05-18T19:06:01.941Z,5.80
2018-05-18T19:08:29.595Z,5.80
2018-05-18T19:10:57.145Z,5.13
2018-05-18T19:13:24.771Z,5.57
2018-05-18T19:15:52.320Z,5.30
2018-05-18T19:18:19.887Z,5.10
2018-05-18T19:20:47.473Z,6.20
2018-05-18T19:23:15.024Z,4.57
2018-05-18T19:25:42.591Z,5.10
2018-05-18T19:28:10.179Z,5.37
2018-05-18T19:30:38.613Z,5.43
2018-05-18T19:33:06.181Z,5.17
2018-05-18T19:35:33.773Z,5.60
2018-05-18T19:38:01.335Z,5.50
2018-05-18T19:40:29.053Z,5.47
2018-05-18T19:42:56.614Z,5.37
2018-05-18T19:45:24.278Z,5.90
2018-05-18T19:47:53.091Z,6.10
2018-05-18T19:50:21.584Z,5.93
2018-05-18T19:52:49.140Z,5.83
2018-05-18T19:55:16.696Z,5.53
2018-05-18T19:57:44.283Z,5.07
2018-05-18T20:00:11.888Z,5.60
2018-05-18T20:02:39.576Z,5.50
2018-05-18T20:05:07.160Z,5.07
2018-05-18T20:07:34.724Z,4.90
2018-05-18T20:10:02.389Z,6.07
2018-05-18T20:12:29.975Z,5.27
2018-05-18T20:14:57.547Z,4.73
2018-05-18T20:17:25.098Z,5.80
2018-05-18T20:19:52.650Z,4.70
2018-05-18T20:22:20.253Z,5.37
2018-05-18T20:24:47.783Z,5.13
2018-05-18T20:27:15.389Z,5.67
2018-05-18T20:29:42.954Z,5.40
2018-05-18T20:32:10.523Z,5.20
2018-05-18T20:34:38.068Z,5.47
2018-05-18T20:37:05.685Z,5.13
2018-05-18T20:39:33.232Z,5.40
2018-05-18T20:42:00.780Z,5.10
2018-05-18T20:44:28.340Z,5.60
2018-05-18T20:46:55.894Z,5.00
2018-05-18T20:49:23.444Z,6.27
2018-05-18T20:51:51.177Z,5.23
2018-05-18T20:54:18.889Z,5.70
2018-05-18T20:56:46.552Z,5.73
2018-05-18T20:59:14.328Z,5.87
2018-05-18T21:01:42.088Z,6.00
2018-05-18T21:04:09.718Z,5.23
2018-05-18T21:06:37.271Z,5.43
2018-05-18T21:09:05.668Z,5.83
2018-05-18T21:11:33.211Z,5.53
2018-05-18T21:14:00.753Z,5.60
2018-05-18T21:16:28.329Z,5.43
2018-05-18T21:18:55.911Z,5.53
2018-05-18T21:21:23.459Z,5.03
2018-05-18T21:23:51.100Z,5.40
2018-05-18T21:26:18.648Z,5.80
2018-05-18T21:28:46.243Z,5.37
2018-05-18T21:31:13.777Z,6.03
2018-05-18T21:33:41.391Z,5.77
2018-05-18T21:36:08.961Z,6.50
2018-05-18T21:38:36.555Z,5.47
2018-05-18T21:41:04.145Z,5.70
2018-05-18T21:43:31.690Z,4.97
2018-05-18T21:45:59.295Z,5.80
2018-05-18T21:48:26.862Z,5.30
2018-05-18T21:50:54.446Z,5.73
2018-05-18T21:53:22.032Z,6.67
2018-05-18T21:55:49.688Z,5.17
2018-05-18T21:58:17.345Z,5.80
2018-05-18T22:00:45.015Z,5.47
2018-05-18T22:03:12.596Z,6.30
2018-05-18T22:05:40.213Z,5.80
2018-05-18T22:08:07.842Z,5.93
2018-05-18T22:10:35.532Z,5.87
2018-05-18T22:13:03.089Z,5.30
2018-05-18T22:15:30.727Z,5.70
2018-05-18T22:17:58.333Z,5.77
2018-05-18T22:20:25.941Z,4.90
2018-05-18T22:22:53.576Z,5.27
2018-05-18T22:25:21.144Z,4.67
2018-05-18T22:27:48.712Z,5.23
2018-05-18T22:30:16.304Z,5.83
2018-05-18T22:32:43.903Z,4.83
2018-05-18T22:35:11.528Z,5.27
2018-05-18T22:37:39.210Z,5.67
2018-05-18T22:40:06.824Z,5.20
2018-05-18T22:42:34.391Z,5.53
2018-05-18T22:45:01.976Z,5.00
2018-05-18T22:47:29.528Z,5.33
2018-05-18T22:49:57.088Z,5.43
2018-05-18T22:52:24.656Z,5.67
2018-05-18T22:54:52.194Z,5.00
2018-05-18T22:57:19.762Z,5.70
2018-05-18T22:59:47.319Z,5.87
2018-05-18T23:02:14.952Z,4.83
2018-05-18T23:04:42.524Z,5.47
2018-05-18T23:07:10.110Z,5.00
2018-05-18T23:09:37.641Z,5.77
2018-05-18T23:12:05.280Z,5.50
2018-05-18T23:14:32.896Z,5.40
2018-05-18T23:17:00.431Z,5.10
2018-05-18T23:19:28.017Z,5.60
2018-05-18T23:21:55.642Z,5.40
2018-05-18T23:24:23.294Z,5.90
2018-05-18T23:26:50.834Z,5.47
2018-05-18T23:29:18.419Z,5.83
2018-05-18T23:31:46.245Z,5.57
2018-05-18T23:34:13.782Z,6.80
2018-05-18T23:36:41.342Z,5.77
2018-05-18T23:39:08.922Z,5.40
2018-05-18T23:41:36.462Z,5.87
2018-05-18T23:44:04.074Z,5.90
2018-05-18T23:46:31.675Z,6.43
2018-05-18T23:48:59.255Z,6.57
2018-05-18T23:51:26.774Z,5.90
2018-05-18T23:53:54.319Z,5.43
2018-05-18T23:56:21.958Z,6.20
2018-05-18T23:58:49.513Z,6.27
